Time;durP1;ratioP1;P1;durP2;ratioP2;P2;SDS_P1;SDS_P2;PMS_P1;PMS_P2;Temp;Humidity;BMP_temperature;BMP_pressure;BME280_temperature;BME280_humidity;BME280_pressure;Samples;Min_cycle;Max_cycle;Signal;HPM_P1;HPM_P2
2021/07/11 00:00:36;;;;;;;3.37;2.60;;;17.30;95.60;;;;;;5067037;28;20654;-80
2021/07/11 00:03:03;;;;;;;3.40;2.63;;;17.30;95.40;;;;;;5062627;28;20532;-81
2021/07/11 00:05:32;;;;;;;2.83;2.60;;;17.30;95.60;;;;;;5060800;28;20412;-81
2021/07/11 00:07:59;;;;;;;3.90;2.80;;;17.30;96.00;;;;;;5063143;28;20907;-81
2021/07/11 00:10:26;;;;;;;2.83;2.60;;;17.30;95.50;;;;;;5062031;28;20503;-81
2021/07/11 00:12:55;;;;;;;2.50;2.30;;;17.30;95.90;;;;;;5062081;28;20488;-82
2021/07/11 00:15:24;;;;;;;3.00;2.70;;;17.30;95.60;;;;;;5062777;28;20855;-81
2021/07/11 00:17:52;;;;;;;2.40;2.20;;;17.30;95.60;;;;;;5068630;28;20485;-82
2021/07/11 00:20:19;;;;;;;2.50;2.30;;;17.30;95.40;;;;;;5069720;28;20468;-81
2021/07/11 00:22:49;;;;;;;2.23;2.13;;;17.30;95.30;;;;;;5064689;28;20430;-81
2021/07/11 00:25:16;;;;;;;2.83;2.50;;;17.30;95.30;;;;;;5062701;28;20483;-81
2021/07/11 00:27:44;;;;;;;2.40;2.20;;;17.30;95.40;;;;;;5060854;28;20483;-80
2021/07/11 00:30:12;;;;;;;2.83;2.63;;;17.30;95.40;;;;;;5062076;28;20501;-81
2021/07/11 00:32:40;;;;;;;2.73;2.50;;;17.30;95.30;;;;;;5063161;28;20452;-82
2021/07/11 00:35:08;;;;;;;6.20;2.63;;;17.30;95.60;;;;;;5062917;28;20423;-81
2021/07/11 00:37:35;;;;;;;3.00;2.30;;;17.40;95.60;;;;;;5061780;28;20473;-81
2021/07/11 00:40:06;;;;;;;2.57;2.37;;;17.40;95.60;;;;;;5064016;28;20484;-81
2021/07/11 00:42:33;;;;;;;2.70;2.50;;;17.40;95.60;;;;;;5061503;28;20803;-80
2021/07/11 00:45:00;;;;;;;2.90;2.70;;;17.30;95.70;;;;;;5060195;28;20483;-80
2021/07/11 00:47:27;;;;;;;3.07;2.50;;;17.30;95.90;;;;;;5059304;28;20542;-81
2021/07/11 00:49:54;;;;;;;3.93;2.50;;;17.30;96.10;;;;;;5064302;28;20551;-80
2021/07/11 00:52:21;;;;;;;3.17;2.80;;;17.20;95.80;;;;;;5059187;28;20492;-79
2021/07/11 00:54:48;;;;;;;3.57;2.33;;;17.20;96.20;;;;;;5058744;28;20464;-81
2021/07/11 00:57:16;;;;;;;2.63;2.43;;;17.20;96.30;;;;;;5074318;28;20463;-82
2021/07/11 00:59:43;;;;;;;2.17;2.07;;;17.20;96.40;;;;;;5075866;28;20436;-82
2021/07/11 01:02:14;;;;;;;3.13;2.70;;;17.20;96.50;;;;;;5076245;28;20441;-83
2021/07/11 01:04:48;;;;;;;3.37;3.07;;;17.10;97.10;;;;;;5064061;28;20456;-80
2021/07/11 01:07:18;;;;;;;4.53;3.00;;;17.10;97.00;;;;;;5060192;28;20564;-81
2021/07/11 01:09:48;;;;;;;3.20;3.00;;;17.10;96.70;;;;;;5059037;28;20506;-81
2021/07/11 01:12:25;;;;;;;3.60;2.80;;;17.10;97.00;;;;;;5056755;28;20543;-81
2021/07/11 01:14:53;;;;;;;2.90;2.70;;;17.10;97.30;;;;;;5060047;28;20495;-79
2021/07/11 01:17:24;;;;;;;3.47;2.57;;;17.10;97.80;;;;;;5062913;28;20507;-80
2021/07/11 01:20:14;;;;;;;7.47;2.97;;;17.20;97.80;;;;;;5060471;28;20444;-80
2021/07/11 01:22:44;;;;;;;4.13;2.67;;;17.20;97.40;;;;;;5058699;28;20473;-80
2021/07/11 01:25:14;;;;;;;3.40;3.10;;;17.10;97.80;;;;;;5058690;28;20461;-80
2021/07/11 01:27:43;;;;;;;4.33;2.80;;;17.20;97.60;;;;;;5057932;28;20571;-79
2021/07/11 01:30:11;;;;;;;4.43;2.60;;;17.20;97.80;;;;;;5058979;28;20575;-80
2021/07/11 01:32:40;;;;;;;2.50;2.30;;;17.20;97.80;;;;;;5059473;28;20441;-82
2021/07/11 01:35:08;;;;;;;3.30;3.10;;;17.20;97.90;;;;;;5061046;28;20460;-80
2021/07/11 01:37:36;;;;;;;5.23;2.40;;;17.30;97.50;;;;;;5059968;28;20476;-81
2021/07/11 01:40:05;;;;;;;2.63;2.43;;;17.30;97.30;;;;;;5062691;28;20486;-81
2021/07/11 01:42:32;;;;;;;4.63;2.90;;;17.30;97.30;;;;;;5067154;28;20457;-81
2021/07/11 01:45:01;;;;;;;3.10;2.80;;;17.30;97.20;;;;;;5067131;28;20452;-79
2021/07/11 01:47:28;;;;;;;3.20;2.90;;;17.30;97.10;;;;;;5066144;28;20438;-80
2021/07/11 01:49:55;;;;;;;2.80;2.60;;;17.40;97.20;;;;;;5069684;28;20515;-80
2021/07/11 01:52:23;;;;;;;5.50;2.80;;;17.40;97.10;;;;;;5066906;28;20460;-80
2021/07/11 01:54:51;;;;;;;2.93;2.60;;;17.40;96.90;;;;;;5071498;28;20502;-80
2021/07/11 01:57:18;;;;;;;5.10;2.60;;;17.40;96.80;;;;;;5072553;28;20461;-81
2021/07/11 01:59:45;;;;;;;4.43;2.80;;;17.40;96.80;;;;;;5068177;28;20626;-80
2021/07/11 02:02:14;;;;;;;3.63;2.73;;;17.50;96.80;;;;;;5072074;28;20480;-81
2021/07/11 02:04:40;;;;;;;4.83;2.10;;;17.50;96.60;;;;;;5072481;28;20463;-81
2021/07/11 02:07:07;;;;;;;3.10;2.80;;;17.50;96.40;;;;;;5072110;28;20476;-81
2021/07/11 02:09:34;;;;;;;3.83;3.40;;;17.50;96.40;;;;;;5073778;28;20447;-82
2021/07/11 02:12:05;;;;;;;3.20;2.77;;;17.50;96.40;;;;;;5076151;28;20444;-81
2021/07/11 02:14:36;;;;;;;4.57;2.60;;;17.50;96.50;;;;;;5074241;28;20542;-81
2021/07/11 02:17:10;;;;;;;2.40;2.20;;;17.50;96.50;;;;;;5075745;28;20486;-82
2021/07/11 02:19:41;;;;;;;3.97;2.40;;;17.50;96.80;;;;;;5073696;28;20477;-81
2021/07/11 02:22:09;;;;;;;3.33;3.00;;;17.50;96.90;;;;;;5075505;28;20445;-81
2021/07/11 02:24:37;;;;;;;4.07;2.53;;;17.40;97.30;;;;;;5080866;28;20460;-82
2021/07/11 02:27:05;;;;;;;3.63;2.83;;;17.40;97.20;;;;;;5080671;28;20548;-82
2021/07/11 02:29:37;;;;;;;3.13;2.93;;;17.40;97.40;;;;;;5080072;28;20459;-82
2021/07/11 02:32:04;;;;;;;3.47;3.17;;;17.50;97.60;;;;;;5080529;28;20429;-82
2021/07/11 02:34:32;;;;;;;4.57;2.90;;;17.50;97.50;;;;;;5080510;28;20444;-81
2021/07/11 02:37:02;;;;;;;3.40;3.03;;;17.50;98.00;;;;;;5080516;28;20479;-81
2021/07/11 02:39:30;;;;;;;3.40;3.03;;;17.50;98.00;;;;;;5080284;28;20444;-83
2021/07/11 02:42:00;;;;;;;3.67;3.23;;;17.40;98.30;;;;;;5079629;28;20452;-82
2021/07/11 02:44:29;;;;;;;3.37;3.07;;;17.40;99.10;;;;;;5079016;28;20467;-82
2021/07/11 02:46:58;;;;;;;4.80;3.10;;;17.40;99.50;;;;;;5080205;28;20474;-81
2021/07/11 02:49:28;;;;;;;3.00;2.80;;;17.40;99.70;;;;;;5079993;28;20498;-83
2021/07/11 02:51:58;;;;;;;4.70;3.00;;;17.50;99.30;;;;;;5080026;28;20501;-81
2021/07/11 02:54:29;;;;;;;2.87;2.67;;;17.50;99.00;;;;;;5079768;28;20441;-82
2021/07/11 02:57:00;;;;;;;4.10;3.27;;;17.50;98.90;;;;;;5079919;28;20468;-82
2021/07/11 02:59:27;;;;;;;4.53;3.47;;;17.40;99.10;;;;;;5079249;28;20472;-81
2021/07/11 03:01:55;;;;;;;4.27;3.13;;;17.40;99.30;;;;;;5079497;28;20475;-81
2021/07/11 03:04:23;;;;;;;5.07;3.37;;;17.40;99.70;;;;;;5079756;28;20452;-82
2021/07/11 03:06:50;;;;;;;4.40;3.83;;;17.40;99.70;;;;;;5075050;28;20465;-80
2021/07/11 03:09:17;;;;;;;3.57;3.23;;;17.40;99.60;;;;;;5064982;28;20555;-81
2021/07/11 03:11:46;;;;;;;3.00;2.80;;;17.40;99.70;;;;;;5064960;28;20919;-81
2021/07/11 03:14:13;;;;;;;3.37;3.07;;;17.40;99.30;;;;;;5064311;28;20460;-80
2021/07/11 03:16:44;;;;;;;3.57;3.37;;;17.50;99.00;;;;;;5064021;28;20558;-80
2021/07/11 03:19:12;;;;;;;3.20;3.00;;;17.50;98.80;;;;;;5064096;28;20540;-80
2021/07/11 03:21:40;;;;;;;5.40;3.37;;;17.50;98.70;;;;;;5061988;28;20448;-80
2021/07/11 03:24:07;;;;;;;8.23;3.40;;;17.40;98.70;;;;;;5061710;28;20441;-80
2021/07/11 03:26:35;;;;;;;3.20;2.90;;;17.40;98.90;;;;;;5061449;28;20534;-80
2021/07/11 03:29:11;;;;;;;4.53;3.30;;;17.30;98.90;;;;;;5061905;28;20528;-81
2021/07/11 03:31:41;;;;;;;3.60;3.30;;;17.20;99.20;;;;;;5069481;28;20494;-81
2021/07/11 03:34:09;;;;;;;3.70;3.40;;;17.20;99.70;;;;;;5073100;28;20433;-80
2021/07/11 03:36:35;;;;;;;4.00;3.30;;;17.20;99.70;;;;;;5078631;28;20449;-81
2021/07/11 03:39:06;;;;;;;3.40;3.10;;;17.20;99.80;;;;;;5078878;28;20420;-81
2021/07/11 03:41:38;;;;;;;3.63;3.33;;;17.20;99.70;;;;;;5078787;28;20468;-81
2021/07/11 03:44:08;;;;;;;3.53;3.20;;;17.20;99.70;;;;;;5078463;28;20454;-81
2021/07/11 03:46:39;;;;;;;7.53;3.43;;;17.10;99.70;;;;;;5079081;28;20464;-82
2021/07/11 03:49:11;;;;;;;4.10;3.27;;;17.10;99.90;;;;;;5078921;28;20421;-81
2021/07/11 03:51:40;;;;;;;4.33;3.60;;;17.10;99.90;;;;;;5078724;28;20511;-83
2021/07/11 03:54:10;;;;;;;4.70;3.53;;;17.20;99.90;;;;;;5077492;28;20444;-81
2021/07/11 03:56:38;;;;;;;4.23;3.37;;;17.20;99.70;;;;;;5076416;28;20443;-81
2021/07/11 03:59:10;;;;;;;5.53;3.67;;;17.20;99.30;;;;;;5078278;28;20435;-82
2021/07/11 04:01:39;;;;;;;4.30;3.63;;;17.10;99.60;;;;;;5078282;28;20430;-83
2021/07/11 04:04:13;;;;;;;3.60;3.30;;;17.10;99.60;;;;;;5078171;28;20452;-82
2021/07/11 04:06:40;;;;;;;5.60;3.47;;;17.20;99.70;;;;;;5077991;28;20473;-83
2021/07/11 04:09:07;;;;;;;3.53;3.23;;;17.20;99.30;;;;;;5075709;28;20458;-82
2021/07/11 04:11:35;;;;;;;8.63;3.70;;;17.10;99.30;;;;;;5077574;28;20489;-83
2021/07/11 04:14:02;;;;;;;5.50;3.87;;;17.10;99.60;;;;;;5068086;28;20563;-83
2021/07/11 04:16:32;;;;;;;3.47;3.10;;;17.10;99.60;;;;;;5077776;28;20459;-82
2021/07/11 04:19:01;;;;;;;5.70;3.90;;;17.10;99.60;;;;;;5078387;28;20498;-83
2021/07/11 04:21:31;;;;;;;3.23;2.90;;;17.10;99.60;;;;;;5077977;28;20452;-84
2021/07/11 04:23:58;;;;;;;4.10;3.40;;;17.20;99.30;;;;;;5077101;28;20524;-82
2021/07/11 04:26:26;;;;;;;5.40;3.50;;;17.20;98.50;;;;;;5073955;28;20476;-81
2021/07/11 04:28:54;;;;;;;4.53;3.60;;;17.20;98.00;;;;;;5074002;28;21029;-81
2021/07/11 04:31:23;;;;;;;4.73;3.40;;;17.20;97.90;;;;;;5072634;28;20567;-81
2021/07/11 04:33:53;;;;;;;6.67;3.50;;;17.20;97.50;;;;;;5070476;28;20451;-82
2021/07/11 04:36:20;;;;;;;3.20;2.90;;;17.20;97.10;;;;;;5070460;28;20477;-83
2021/07/11 04:38:47;;;;;;;4.60;3.10;;;17.30;96.30;;;;;;5070439;28;20945;-83
2021/07/11 04:41:14;;;;;;;3.70;3.10;;;17.30;95.30;;;;;;5066276;28;20420;-83
2021/07/11 04:43:44;;;;;;;3.87;3.47;;;17.30;95.20;;;;;;5068333;28;20464;-83
2021/07/11 04:46:11;;;;;;;3.90;3.60;;;17.30;94.90;;;;;;5072449;28;20455;-83
2021/07/11 04:48:38;;;;;;;4.20;3.80;;;17.40;94.90;;;;;;5073820;28;20483;-84
2021/07/11 04:51:06;;;;;;;6.20;3.33;;;17.40;94.70;;;;;;5074669;28;20485;-84
2021/07/11 04:53:34;;;;;;;5.73;3.23;;;17.40;94.30;;;;;;5073423;28;20460;-83
2021/07/11 04:56:01;;;;;;;4.30;3.90;;;17.40;94.30;;;;;;5073619;28;20475;-83
2021/07/11 04:58:28;;;;;;;4.20;3.30;;;17.30;94.60;;;;;;5073735;28;20449;-84
2021/07/11 05:00:55;;;;;;;3.80;3.40;;;17.30;94.30;;;;;;5074881;28;20481;-83
2021/07/11 05:03:22;;;;;;;8.83;3.50;;;17.30;94.40;;;;;;5068551;28;20429;-84
2021/07/11 05:05:49;;;;;;;6.60;3.70;;;17.30;94.30;;;;;;5071284;28;20457;-84
2021/07/11 05:08:17;;;;;;;4.40;3.73;;;17.30;94.30;;;;;;5076727;28;20479;-83
2021/07/11 05:10:44;;;;;;;3.73;3.43;;;17.30;94.30;;;;;;5077594;28;20468;-84
2021/07/11 05:13:11;;;;;;;3.47;3.17;;;17.30;94.30;;;;;;5076396;28;20457;-84
2021/07/11 05:15:38;;;;;;;3.70;3.40;;;17.30;94.30;;;;;;5065587;28;20501;-85
2021/07/11 05:18:05;;;;;;;6.07;3.70;;;17.30;93.50;;;;;;5064253;28;20508;-85
2021/07/11 05:20:32;;;;;;;8.70;4.13;;;17.30;94.10;;;;;;5075690;28;20464;-84
2021/07/11 05:22:59;;;;;;;3.83;2.97;;;17.40;93.30;;;;;;5076424;28;20464;-84
2021/07/11 05:25:30;;;;;;;4.10;3.50;;;17.40;93.50;;;;;;5076856;28;20455;-84
2021/07/11 05:27:57;;;;;;;5.00;3.50;;;17.40;92.70;;;;;;5076575;28;20491;-84
2021/07/11 05:30:24;;;;;;;4.23;3.23;;;17.50;92.50;;;;;;5076202;28;20457;-83
2021/07/11 05:32:51;;;;;;;3.80;3.50;;;17.70;92.00;;;;;;5075782;28;20437;-81
2021/07/11 05:35:18;;;;;;;5.10;3.20;;;17.80;90.80;;;;;;5075520;28;20433;-80
2021/07/11 05:37:45;;;;;;;4.07;2.90;;;17.80;88.50;;;;;;5066552;28;20477;-79
2021/07/11 05:40:15;;;;;;;4.23;2.73;;;18.00;87.70;;;;;;5059433;28;20556;-79
2021/07/11 05:42:44;;;;;;;5.33;3.50;;;18.20;83.40;;;;;;5069509;28;20449;-81
2021/07/11 05:45:12;;;;;;;3.40;3.10;;;18.40;79.90;;;;;;5070484;28;20945;-82
2021/07/11 05:47:39;;;;;;;3.27;2.97;;;18.70;77.40;;;;;;5072843;28;20532;-81
2021/07/11 05:50:08;;;;;;;5.37;2.80;;;19.00;75.80;;;;;;5072576;28;20463;-82
2021/07/11 05:52:35;;;;;;;5.80;3.00;;;19.60;69.70;;;;;;5076459;28;20496;-87
2021/07/11 05:55:02;;;;;;;4.30;2.70;;;19.80;67.60;;;;;;5069743;28;20463;-80
2021/07/11 05:57:31;;;;;;;5.20;2.57;;;19.80;67.10;;;;;;5069852;28;20470;-79
2021/07/11 05:59:59;;;;;;;5.60;2.30;;;19.70;66.50;;;;;;5069363;28;20451;-79
2021/07/11 06:02:27;;;;;;;4.80;2.43;;;19.60;66.90;;;;;;5068438;28;20452;-79
2021/07/11 06:04:54;;;;;;;5.27;2.50;;;19.50;66.60;;;;;;5066241;28;20458;-79
2021/07/11 06:07:21;;;;;;;2.60;2.40;;;19.60;65.30;;;;;;5062709;28;20497;-79
2021/07/11 06:09:48;;;;;;;4.20;2.37;;;19.80;64.70;;;;;;5058326;28;20468;-79
2021/07/11 06:12:15;;;;;;;3.60;2.30;;;19.90;63.60;;;;;;5060131;28;20497;-83
2021/07/11 06:14:42;;;;;;;3.43;1.90;;;20.30;61.20;;;;;;5065463;28;20458;-81
2021/07/11 06:17:11;;;;;;;8.40;2.13;;;21.00;59.50;;;;;;5070634;28;20472;-82
2021/07/11 06:19:38;;;;;;;4.63;2.10;;;21.80;55.10;;;;;;5074553;28;20472;-81
2021/07/11 06:22:05;;;;;;;2.10;1.77;;;22.50;52.10;;;;;;5074218;28;20444;-82
2021/07/11 06:24:32;;;;;;;2.40;1.90;;;23.30;49.60;;;;;;5073798;28;20460;-81
2021/07/11 06:26:59;;;;;;;3.73;2.10;;;23.30;47.00;;;;;;5072605;28;20516;-82
2021/07/11 06:29:26;;;;;;;4.67;3.20;;;23.10;48.50;;;;;;5072777;28;20441;-82
2021/07/11 06:31:53;;;;;;;3.20;2.20;;;23.40;47.90;;;;;;5070086;28;20499;-83
2021/07/11 06:34:21;;;;;;;2.60;2.23;;;23.90;47.20;;;;;;5061423;28;20488;-82
2021/07/11 06:36:48;;;;;;;2.67;2.33;;;24.00;44.30;;;;;;5062319;28;20474;-82
2021/07/11 06:39:15;;;;;;;4.30;1.97;;;24.20;43.60;;;;;;5061814;28;20542;-81
2021/07/11 06:41:42;;;;;;;4.53;1.90;;;24.40;44.10;;;;;;5058563;28;20478;-82
2021/07/11 06:44:08;;;;;;;2.23;1.53;;;24.30;42.80;;;;;;5059790;28;20454;-82
2021/07/11 06:46:35;;;;;;;3.10;2.07;;;23.90;44.40;;;;;;5062238;28;20507;-81
2021/07/11 06:49:02;;;;;;;4.03;2.00;;;23.80;44.50;;;;;;5055945;28;20463;-79
2021/07/11 06:51:31;;;;;;;2.80;1.97;;;23.80;43.40;;;;;;5056093;28;20568;-80
2021/07/11 06:53:57;;;;;;;3.50;1.73;;;23.60;44.40;;;;;;5056355;28;21088;-80
2021/07/11 06:56:24;;;;;;;2.77;1.80;;;23.90;44.00;;;;;;5066389;28;20545;-82
2021/07/11 06:58:51;;;;;;;6.87;2.07;;;23.60;44.70;;;;;;5075085;28;20439;-80
2021/07/11 07:01:18;;;;;;;2.23;1.83;;;23.70;44.20;;;;;;5065792;28;20438;-79
2021/07/11 07:03:45;;;;;;;2.30;1.90;;;23.70;43.40;;;;;;5055228;28;20971;-79
2021/07/11 07:06:12;;;;;;;3.07;2.07;;;23.00;45.70;;;;;;5056028;28;20488;-79
2021/07/11 07:08:40;;;;;;;2.50;2.30;;;22.60;47.10;;;;;;5055954;28;20479;-79
2021/07/11 07:11:07;;;;;;;4.53;2.20;;;22.00;48.20;;;;;;5059492;28;20536;-80
2021/07/11 07:13:34;;;;;;;2.30;2.20;;;21.70;50.40;;;;;;5064011;28;20491;-80
2021/07/11 07:16:03;;;;;;;2.67;2.10;;;21.40;50.20;;;;;;5062321;28;21022;-79
2021/07/11 07:18:29;;;;;;;3.23;2.13;;;21.00;51.00;;;;;;5059308;28;20457;-81
2021/07/11 07:20:56;;;;;;;2.83;2.53;;;20.80;51.20;;;;;;5060105;28;20546;-80
2021/07/11 07:23:23;;;;;;;2.40;1.70;;;20.70;51.00;;;;;;5062153;28;20497;-80
2021/07/11 07:25:52;;;;;;;3.80;2.10;;;20.60;49.80;;;;;;5062075;28;20466;-80
2021/07/11 07:28:18;;;;;;;2.10;2.00;;;20.50;51.30;;;;;;5067506;28;20507;-83
2021/07/11 07:30:45;;;;;;;2.90;1.83;;;20.60;51.70;;;;;;5066626;28;20466;-84
2021/07/11 07:33:12;;;;;;;4.30;1.70;;;20.70;51.90;;;;;;5067009;28;20505;-84
2021/07/11 07:35:39;;;;;;;2.40;1.87;;;20.80;50.80;;;;;;5070384;28;20437;-82
2021/07/11 07:38:07;;;;;;;4.17;2.13;;;21.00;49.80;;;;;;5077370;28;20463;-80
2021/07/11 07:40:35;;;;;;;2.90;2.07;;;21.00;49.80;;;;;;5071302;28;20563;-83
2021/07/11 07:43:04;;;;;;;2.53;2.03;;;21.00;49.80;;;;;;5066779;28;20459;-82
2021/07/11 07:45:31;;;;;;;1.93;1.83;;;21.20;50.00;;;;;;5065457;28;21021;-81
2021/07/11 07:47:58;;;;;;;5.30;2.17;;;21.20;50.00;;;;;;5068642;28;20474;-79
2021/07/11 07:50:25;;;;;;;4.13;2.27;;;21.30;48.90;;;;;;5073892;28;20426;-81
2021/07/11 07:52:52;;;;;;;2.47;2.10;;;21.20;50.00;;;;;;5072173;28;20486;-81
2021/07/11 07:55:20;;;;;;;3.53;1.97;;;21.20;50.00;;;;;;5073755;28;20407;-82
2021/07/11 07:57:47;;;;;;;3.77;1.90;;;21.30;50.10;;;;;;5065473;28;20477;-80
2021/07/11 08:00:17;;;;;;;2.23;2.03;;;21.60;50.40;;;;;;5066333;28;20456;-82
2021/07/11 08:02:44;;;;;;;2.37;2.17;;;21.80;48.60;;;;;;5067009;28;20535;-80
2021/07/11 08:05:11;;;;;;;4.50;2.07;;;21.90;48.20;;;;;;5067580;28;20439;-81
2021/07/11 08:07:39;;;;;;;2.57;2.20;;;21.90;48.00;;;;;;5072218;28;20442;-81
2021/07/11 08:10:08;;;;;;;2.33;2.13;;;21.50;49.90;;;;;;5072064;28;20509;-81
2021/07/11 08:12:35;;;;;;;5.40;2.27;;;21.50;50.30;;;;;;5073481;28;20514;-83
2021/07/11 08:15:03;;;;;;;3.20;2.47;;;21.70;48.30;;;;;;5071845;28;20474;-82
2021/07/11 08:17:33;;;;;;;2.73;1.93;;;21.70;49.00;;;;;;5075620;28;20536;-81
2021/07/11 08:20:01;;;;;;;3.60;2.50;;;21.70;50.40;;;;;;5074824;28;20453;-82
2021/07/11 08:22:28;;;;;;;2.57;2.00;;;21.70;50.00;;;;;;5076026;28;20463;-80
2021/07/11 08:24:55;;;;;;;3.07;1.93;;;21.90;48.40;;;;;;5076085;28;20447;-81
2021/07/11 08:27:23;;;;;;;2.50;2.30;;;21.90;48.40;;;;;;5077094;28;20479;-82
2021/07/11 08:29:51;;;;;;;2.33;2.17;;;21.90;48.20;;;;;;5077414;28;20447;-81
2021/07/11 08:32:18;;;;;;;6.00;2.37;;;22.10;47.60;;;;;;5076425;28;20515;-81
2021/07/11 08:34:47;;;;;;;3.03;2.50;;;22.00;48.60;;;;;;5076742;28;20480;-80
2021/07/11 08:37:14;;;;;;;6.63;2.63;;;22.20;49.10;;;;;;5075309;28;20465;-82
2021/07/11 08:39:41;;;;;;;4.60;2.60;;;22.50;48.60;;;;;;5076420;28;20476;-83
2021/07/11 08:42:09;;;;;;;2.80;2.43;;;22.30;48.10;;;;;;5064839;28;20438;-79
2021/07/11 08:44:36;;;;;;;5.67;2.47;;;22.20;48.70;;;;;;5063809;28;20481;-81
2021/07/11 08:47:04;;;;;;;3.40;2.40;;;22.20;47.90;;;;;;5063687;28;20768;-80
2021/07/11 08:49:32;;;;;;;3.20;2.30;;;22.20;47.70;;;;;;5063717;28;20469;-81
2021/07/11 08:52:02;;;;;;;3.07;2.50;;;22.40;47.80;;;;;;5065864;28;20491;-82
2021/07/11 08:54:29;;;;;;;2.43;2.23;;;22.40;47.10;;;;;;5064967;28;20449;-82
2021/07/11 08:57:01;;;;;;;2.20;2.00;;;22.30;47.80;;;;;;5066896;28;20518;-82
2021/07/11 08:59:29;;;;;;;5.03;2.60;;;22.30;47.90;;;;;;5064300;28;20433;-81
2021/07/11 09:01:57;;;;;;;5.43;2.57;;;22.10;48.00;;;;;;5062589;28;20452;-81
2021/07/11 09:04:24;;;;;;;7.63;2.37;;;22.10;47.50;;;;;;5067706;28;20426;-81
2021/07/11 09:06:54;;;;;;;2.97;2.20;;;22.10;47.70;;;;;;5063545;28;20481;-82
2021/07/11 09:09:28;;;;;;;4.13;2.23;;;22.50;46.00;;;;;;5061431;28;20460;-80
2021/07/11 09:11:58;;;;;;;5.07;1.80;;;22.60;45.50;;;;;;5060532;28;20516;-80
2021/07/11 09:14:29;;;;;;;4.40;2.03;;;23.00;44.20;;;;;;5060564;28;20458;-82
2021/07/11 09:16:59;;;;;;;2.47;2.27;;;23.20;43.50;;;;;;5063053;28;20449;-81
2021/07/11 09:19:29;;;;;;;4.20;2.67;;;23.40;44.10;;;;;;5075806;28;20450;-82
2021/07/11 09:21:58;;;;;;;2.13;1.93;;;23.70;42.30;;;;;;5077737;28;20447;-82
2021/07/11 09:24:28;;;;;;;5.93;2.33;;;23.70;42.30;;;;;;5075651;28;20445;-81
2021/07/11 09:26:56;;;;;;;2.57;2.10;;;23.90;41.10;;;;;;5074987;28;20473;-82
2021/07/11 09:29:30;;;;;;;2.73;2.17;;;24.20;39.40;;;;;;5076229;28;20458;-82
2021/07/11 09:31:58;;;;;;;3.07;2.27;;;23.90;40.70;;;;;;5075012;28;20497;-82
2021/07/11 09:34:27;;;;;;;3.07;2.17;;;23.70;41.00;;;;;;5076736;28;20484;-82
2021/07/11 09:37:12;;;;;;;2.13;1.93;;;23.60;42.20;;;;;;5076589;28;20850;-81
2021/07/11 09:39:49;;;;;;;2.90;1.90;;;23.70;41.90;;;;;;5077380;28;20439;-80
2021/07/11 09:42:31;;;;;;;2.87;2.10;;;23.90;42.50;;;;;;5077516;28;20447;-82
2021/07/11 09:44:59;;;;;;;3.07;2.13;;;24.10;41.00;;;;;;5077304;28;20431;-81
2021/07/11 09:47:28;;;;;;;2.10;1.90;;;24.00;42.60;;;;;;5076939;28;20480;-81
2021/07/11 09:50:09;;;;;;;9.80;2.50;;;23.90;42.60;;;;;;5067645;28;20422;-82
2021/07/11 09:52:39;;;;;;;2.80;2.60;;;23.40;44.20;;;;;;5067072;28;20523;-81
2021/07/11 09:55:12;;;;;;;2.00;1.90;;;23.50;43.50;;;;;;5069698;28;20457;-81
2021/07/11 09:57:40;;;;;;;2.30;2.00;;;23.60;43.90;;;;;;5073209;28;20471;-80
2021/07/11 10:00:17;;;;;;;3.83;2.23;;;23.90;43.70;;;;;;5074833;28;20433;-81
2021/07/11 10:02:46;;;;;;;2.67;2.00;;;24.00;42.60;;;;;;5075351;28;20444;-81
2021/07/11 10:05:15;;;;;;;2.37;2.17;;;24.20;42.70;;;;;;5077058;28;20494;-81
2021/07/11 10:07:43;;;;;;;3.40;2.63;;;24.20;42.70;;;;;;5077184;28;20576;-81
2021/07/11 10:10:14;;;;;;;2.50;2.30;;;24.00;42.60;;;;;;5077269;28;20439;-81
2021/07/11 10:12:42;;;;;;;4.10;2.03;;;24.00;42.60;;;;;;5076534;28;20485;-83
2021/07/11 10:15:21;;;;;;;2.87;2.20;;;24.10;43.20;;;;;;5076783;28;20449;-82
2021/07/11 10:17:50;;;;;;;3.27;2.00;;;23.50;44.30;;;;;;5066560;28;20468;-83
2021/07/11 10:20:20;;;;;;;2.43;2.10;;;23.50;44.50;;;;;;5073518;28;20552;-82
2021/07/11 10:22:49;;;;;;;3.40;2.50;;;23.70;42.30;;;;;;5062866;28;20450;-82
2021/07/11 10:25:20;;;;;;;4.67;2.50;;;23.80;42.40;;;;;;5059492;28;20730;-82
2021/07/11 10:27:48;;;;;;;2.67;2.20;;;23.80;42.30;;;;;;5064511;28;20553;-82
2021/07/11 10:30:34;;;;;;;3.00;2.70;;;23.90;42.50;;;;;;5065403;28;20433;-82
2021/07/11 10:33:08;;;;;;;2.03;1.93;;;23.30;43.80;;;;;;5074682;28;20465;-81
2021/07/11 10:35:35;;;;;;;2.50;2.30;;;23.70;42.30;;;;;;5076724;28;20440;-85
2021/07/11 10:38:02;;;;;;;2.67;2.47;;;23.90;42.50;;;;;;5075523;28;20477;-83
2021/07/11 10:40:33;;;;;;;3.30;2.57;;;23.30;42.60;;;;;;5075807;28;20420;-83
2021/07/11 10:43:01;;;;;;;3.57;2.13;;;23.50;42.10;;;;;;5065246;28;20496;-83
2021/07/11 10:45:28;;;;;;;1.77;1.67;;;23.80;42.30;;;;;;5065192;28;20438;-84
2021/07/11 10:48:04;;;;;;;2.43;1.80;;;23.90;39.30;;;;;;5072469;28;20485;-83
2021/07/11 10:50:33;;;;;;;2.13;1.63;;;24.00;38.50;;;;;;5078927;28;20531;-84
2021/07/11 10:53:01;;;;;;;1.90;1.80;;;24.50;37.50;;;;;;5078605;28;20483;-84
2021/07/11 10:55:42;;;;;;;3.80;2.10;;;25.30;36.30;;;;;;5080248;28;20479;-84
2021/07/11 10:58:14;;;;;;;1.53;1.43;;;25.90;33.80;;;;;;5079937;28;20473;-84
2021/07/11 11:00:42;;;;;;;2.50;2.07;;;26.00;33.80;;;;;;5078893;28;20449;-84
2021/07/11 11:03:20;;;;;;;1.80;1.70;;;25.90;34.50;;;;;;5070338;28;20449;-85
2021/07/11 11:05:48;;;;;;;3.63;2.10;;;25.90;36.50;;;;;;5067094;28;20455;-84
2021/07/11 11:08:17;;;;;;;2.50;2.30;;;25.30;37.20;;;;;;5068925;28;20460;-84
2021/07/11 11:10:53;;;;;;;2.40;2.20;;;25.20;38.50;;;;;;5068245;28;20844;-83
2021/07/11 11:13:25;;;;;;;2.00;1.90;;;25.10;39.10;;;;;;5072650;28;20983;-84
2021/07/11 11:15:54;;;;;;;2.17;2.07;;;25.30;38.80;;;;;;5071009;28;20449;-83
2021/07/11 11:18:24;;;;;;;4.23;2.00;;;25.60;38.00;;;;;;5075443;28;20467;-83
2021/07/11 11:20:54;;;;;;;2.17;1.37;;;25.60;37.40;;;;;;5071254;28;20599;-85
2021/07/11 11:23:21;;;;;;;2.30;2.00;;;25.30;36.90;;;;;;5068474;28;20467;-84
2021/07/11 11:25:50;;;;;;;1.80;1.70;;;25.00;37.00;;;;;;5071579;28;20470;-83
2021/07/11 11:28:27;;;;;;;2.40;2.00;;;24.80;38.00;;;;;;5077598;28;20479;-85
2021/07/11 11:31:05;;;;;;;2.57;1.77;;;24.40;37.60;;;;;;5078232;28;20775;-84
2021/07/11 11:33:36;;;;;;;3.13;2.10;;;24.10;38.20;;;;;;5076859;28;20445;-84
2021/07/11 11:36:04;;;;;;;1.77;1.50;;;23.90;38.60;;;;;;5077689;28;20454;-83
2021/07/11 11:38:42;;;;;;;2.10;1.77;;;23.80;39.50;;;;;;5075558;28;20523;-84
2021/07/11 11:41:13;;;;;;;2.20;1.80;;;23.90;38.40;;;;;;5073028;28;20814;-84
2021/07/11 11:43:41;;;;;;;4.57;1.73;;;23.80;38.50;;;;;;5067773;28;20886;-84
2021/07/11 11:46:08;;;;;;;2.13;1.80;;;23.70;38.00;;;;;;5069399;28;20433;-84
2021/07/11 11:48:35;;;;;;;1.60;1.50;;;23.60;38.00;;;;;;5074365;28;20428;-83
2021/07/11 11:51:05;;;;;;;1.80;1.70;;;23.50;38.60;;;;;;5074284;28;20413;-83
2021/07/11 11:53:43;;;;;;;1.63;1.50;;;23.90;37.30;;;;;;5079556;28;20556;-84
2021/07/11 11:56:14;;;;;;;1.60;1.50;;;24.00;36.50;;;;;;5078057;28;20440;-83
2021/07/11 11:58:41;;;;;;;2.23;1.67;;;24.10;36.40;;;;;;5078877;28;20433;-84
2021/07/11 12:01:12;;;;;;;2.00;1.80;;;24.10;36.30;;;;;;5078342;28;20921;-86
2021/07/11 12:03:41;;;;;;;2.20;1.63;;;24.20;37.40;;;;;;5078143;28;20429;-84
2021/07/11 12:06:10;;;;;;;2.23;1.80;;;24.10;39.10;;;;;;5076982;28;20462;-83
2021/07/11 12:08:38;;;;;;;8.63;2.40;;;23.90;40.20;;;;;;5077805;28;20461;-84
2021/07/11 12:11:07;;;;;;;2.80;2.00;;;24.00;41.40;;;;;;5077895;28;20439;-83
2021/07/11 12:13:35;;;;;;;2.67;2.47;;;24.10;41.40;;;;;;5075867;28;20469;-84
2021/07/11 12:16:07;;;;;;;3.33;2.67;;;24.00;42.60;;;;;;5078219;28;20513;-83
2021/07/11 12:18:48;;;;;;;6.73;2.43;;;23.90;42.50;;;;;;5078961;28;20433;-82
2021/07/11 12:21:22;;;;;;;1.90;1.70;;;24.10;40.80;;;;;;5078124;28;20447;-84
2021/07/11 12:24:01;;;;;;;2.40;1.70;;;24.10;39.00;;;;;;5078669;28;20426;-84
2021/07/11 12:26:31;;;;;;;1.90;1.80;;;24.20;38.00;;;;;;5069322;28;20534;-85
2021/07/11 12:28:59;;;;;;;2.37;1.60;;;24.30;37.00;;;;;;5077132;28;20474;-84
2021/07/11 12:31:31;;;;;;;2.03;1.80;;;24.40;37.80;;;;;;5077519;28;20403;-85
2021/07/11 12:34:00;;;;;;;2.20;1.90;;;24.90;37.70;;;;;;5076943;28;21008;-82
2021/07/11 12:36:27;;;;;;;2.30;1.63;;;25.20;36.50;;;;;;5077036;28;20472;-83
2021/07/11 12:38:54;;;;;;;3.37;1.83;;;25.40;36.80;;;;;;5076754;28;20423;-83
2021/07/11 12:41:27;;;;;;;1.87;1.77;;;25.60;33.90;;;;;;5076681;28;20437;-83
2021/07/11 12:43:55;;;;;;;1.30;1.20;;;25.40;34.80;;;;;;5076999;28;20467;-84
2021/07/11 12:46:26;;;;;;;1.87;1.77;;;25.10;35.10;;;;;;5073096;28;20471;-84
2021/07/11 12:48:56;;;;;;;1.70;1.60;;;24.90;35.80;;;;;;5078209;28;20418;-85
2021/07/11 12:51:25;;;;;;;1.80;1.70;;;24.70;36.30;;;;;;5077840;28;20420;-85
2021/07/11 12:53:57;;;;;;;1.50;1.40;;;24.80;36.80;;;;;;5073902;28;20498;-83
2021/07/11 12:56:26;;;;;;;2.23;1.70;;;25.30;35.50;;;;;;5073180;28;20517;-84